Time;durP1;ratioP1;P1;durP2;ratioP2;P2;SDS_P1;SDS_P2;PMS_P1;PMS_P2;Temp;Humidity;BMP_temperature;BMP_pressure;BME280_temperature;BME280_humidity;BME280_pressure;Samples;Min_cycle;Max_cycle;Signal;HPM_P1;HPM_P2
2022/12/12 00:02:18;;;;;;;42.80;19.23;;;;;;;0.10;82.80;99359.53;4979115;28;20058;-88
2022/12/12 00:04:45;;;;;;;45.10;18.80;;;;;;;0.11;83.28;99360.38;4965800;28;20049;-88
2022/12/12 00:07:12;;;;;;;43.13;18.23;;;;;;;0.03;83.95;99365.16;4982487;28;20427;-88
2022/12/12 00:09:39;;;;;;;41.65;17.73;;;;;;;0.02;84.25;99364.28;4969935;28;20080;-88
2022/12/12 00:12:06;;;;;;;45.70;20.83;;;;;;;-0.02;84.22;99362.78;4993842;28;20058;-89
2022/12/12 00:14:33;;;;;;;45.22;19.60;;;;;;;0.02;84.32;99366.91;4989320;28;20046;-89
2022/12/12 00:16:59;;;;;;;50.75;19.63;;;;;;;0.00;84.50;99366.16;4980620;28;20073;-89
2022/12/12 00:19:26;;;;;;;52.30;20.13;;;;;;;-0.01;84.53;99372.28;4983742;28;20074;-89
2022/12/12 00:21:53;;;;;;;41.97;19.13;;;;;;;0.02;84.26;99369.50;4953756;28;20137;-89
2022/12/12 00:24:19;;;;;;;48.70;20.85;;;;;;;0.06;84.36;99365.00;4984390;28;20046;-89
2022/12/12 00:26:46;;;;;;;43.85;19.30;;;;;;;0.09;83.78;99370.03;4966683;28;20053;-89
2022/12/12 00:29:13;;;;;;;47.42;20.85;;;;;;;0.07;83.90;99366.66;4991463;28;20101;-89
2022/12/12 00:31:40;;;;;;;47.75;20.58;;;;;;;0.05;83.57;99366.75;4950746;28;20214;-89
2022/12/12 00:34:07;;;;;;;48.45;19.63;;;;;;;0.07;83.71;99362.28;4962910;28;20039;-88
2022/12/12 00:36:34;;;;;;;43.38;18.70;;;;;;;0.06;84.01;99365.81;4943565;28;20058;-88
2022/12/12 00:39:02;;;;;;;45.47;20.08;;;;;;;0.07;83.93;99361.44;4957074;28;20056;-88
2022/12/12 00:41:30;;;;;;;43.33;17.83;;;;;;;0.08;84.21;99368.38;4979195;28;20070;-87
2022/12/12 00:43:56;;;;;;;41.88;18.75;;;;;;;0.10;83.52;99361.28;4984116;28;20042;-89
2022/12/12 00:46:24;;;;;;;47.60;19.85;;;;;;;0.05;84.23;99358.94;4978907;28;20101;-88
2022/12/12 00:48:56;;;;;;;45.70;19.80;;;;;;;0.08;83.90;99350.94;4972930;28;20042;-88
2022/12/12 00:51:25;;;;;;;49.33;19.48;;;;;;;0.06;83.76;99354.53;4955179;28;20514;-88
2022/12/12 00:53:54;;;;;;;46.05;18.90;;;;;;;0.08;83.78;99363.16;4966256;28;20061;-88
2022/12/12 00:56:21;;;;;;;40.83;18.85;;;;;;;0.08;83.44;99348.31;4959048;28;20050;-84
2022/12/12 00:58:49;;;;;;;48.90;20.88;;;;;;;0.13;83.08;99350.69;4951745;28;20045;-89
2022/12/12 01:01:25;;;;;;;51.53;20.35;;;;;;;0.13;82.79;99356.75;5000707;28;20046;-88
2022/12/12 01:03:55;;;;;;;45.10;19.52;;;;;;;0.13;82.83;99368.97;4967463;28;24862;-88
2022/12/12 01:06:22;;;;;;;52.45;20.38;;;;;;;0.12;82.81;99356.81;4995457;28;20112;-89
2022/12/12 01:08:49;;;;;;;45.38;20.00;;;;;;;0.13;82.60;99361.97;4947427;28;20039;-89
2022/12/12 01:11:16;;;;;;;46.75;19.83;;;;;;;0.13;82.75;99364.59;4998458;28;20051;-88
2022/12/12 01:13:43;;;;;;;47.30;18.27;;;;;;;0.11;82.72;99376.88;4977879;28;20073;-84
2022/12/12 01:16:11;;;;;;;42.15;18.83;;;;;;;0.05;83.35;99376.34;4983788;28;20039;-88
2022/12/12 01:18:38;;;;;;;42.47;18.65;;;;;;;0.04;82.93;99378.09;4977574;28;20043;-89
2022/12/12 01:21:13;;;;;;;37.78;16.98;;;;;;;-0.05;83.01;99382.06;4965326;28;20091;-88
2022/12/12 01:23:41;;;;;;;38.58;16.85;;;;;;;-0.05;83.03;99382.06;4967954;28;20096;-89
2022/12/12 01:26:14;;;;;;;44.47;17.88;;;;;;;-0.09;82.85;99383.13;4957665;28;20118;-88
2022/12/12 01:28:42;;;;;;;44.60;19.85;;;;;;;-0.12;83.14;99391.13;4961240;28;20039;-89
2022/12/12 01:31:09;;;;;;;46.53;18.50;;;;;;;-0.12;83.11;99392.88;4941993;28;20129;-89
2022/12/12 01:33:36;;;;;;;46.03;18.70;;;;;;;-0.12;83.01;99385.91;4982531;28;20057;-89
2022/12/12 01:36:03;;;;;;;43.25;18.52;;;;;;;-0.13;83.38;99393.78;4964682;28;20146;-89
2022/12/12 01:38:30;;;;;;;44.17;19.85;;;;;;;-0.14;83.36;99387.75;4983735;28;20053;-89
2022/12/12 01:40:57;;;;;;;46.95;19.70;;;;;;;-0.14;82.95;99392.13;4986509;28;20613;-88
2022/12/12 01:43:24;;;;;;;42.95;19.73;;;;;;;-0.14;83.38;99384.28;4987136;28;20047;-89
2022/12/12 01:45:57;;;;;;;42.78;19.73;;;;;;;-0.23;83.76;99388.19;4937516;28;20043;-88
2022/12/12 01:48:35;;;;;;;44.65;17.88;;;;;;;-0.18;83.67;99390.56;4963188;28;20119;-88
2022/12/12 01:51:06;;;;;;;43.92;18.83;;;;;;;-0.22;83.73;99382.91;4971168;28;20124;-88
2022/12/12 01:53:33;;;;;;;43.10;18.65;;;;;;;-0.22;83.72;99387.28;4982115;28;20050;-89
2022/12/12 01:56:01;;;;;;;43.47;18.55;;;;;;;-0.26;83.78;99393.56;4955652;28;20646;-89
2022/12/12 01:58:29;;;;;;;43.88;18.88;;;;;;;-0.20;83.79;99395.91;4966190;28;20683;-89
2022/12/12 02:00:56;;;;;;;39.95;18.58;;;;;;;-0.16;83.48;99393.97;4963359;28;20050;-89
2022/12/12 02:03:22;;;;;;;45.22;19.80;;;;;;;-0.20;83.77;99395.03;4967450;28;20048;-88
2022/12/12 02:05:55;;;;;;;49.95;19.52;;;;;;;-0.26;83.75;99393.56;4975003;28;20117;-89
2022/12/12 02:08:22;;;;;;;51.00;20.02;;;;;;;-0.24;83.79;99397.81;4948482;28;20467;-88
2022/12/12 02:10:50;;;;;;;44.50;19.10;;;;;;;-0.23;83.50;99390.81;4960168;28;20113;-89
2022/12/12 02:13:28;;;;;;;45.40;18.77;;;;;;;-0.26;83.84;99399.63;4951541;28;20413;-89
2022/12/12 02:16:22;;;;;;;46.50;19.70;;;;;;;-0.24;83.94;99397.81;4950986;28;20050;-89
2022/12/12 02:19:31;;;;;;;40.90;18.33;;;;;;;-0.31;84.02;99399.03;4931826;28;20376;-89
2022/12/12 02:22:02;;;;;;;45.95;19.40;;;;;;;-0.23;83.99;99403.84;4922430;28;20470;-89
2022/12/12 02:24:59;;;;;;;50.00;19.67;;;;;;;-0.30;83.93;99402.50;4985558;28;20046;-89
2022/12/12 02:27:34;;;;;;;44.67;19.02;;;;;;;-0.16;83.76;99401.78;4936760;28;20050;-89
2022/12/12 02:30:11;;;;;;;45.47;20.13;;;;;;;-0.16;83.86;99396.56;4964912;28;20046;-88
2022/12/12 02:32:42;;;;;;;45.40;20.58;;;;;;;-0.17;84.37;99403.56;4964903;28;20070;-89
2022/12/12 02:35:24;;;;;;;45.90;18.55;;;;;;;-0.18;84.39;99395.78;4993617;28;20561;-89
2022/12/12 02:38:01;;;;;;;43.20;20.08;;;;;;;-0.09;83.85;99411.00;4984750;28;20133;-89
2022/12/12 02:40:39;;;;;;;38.72;18.83;;;;;;;-0.15;84.38;99399.09;4963664;28;20467;-88
2022/12/12 02:43:14;;;;;;;44.95;20.20;;;;;;;-0.18;84.80;99408.84;4967869;28;20105;-88
2022/12/12 02:45:52;;;;;;;51.55;20.08;;;;;;;-0.22;85.52;99405.56;4949571;28;20051;-89
2022/12/12 02:48:23;;;;;;;48.97;20.38;;;;;;;-0.12;84.91;99411.16;4948352;28;20062;-88
2022/12/12 02:50:52;;;;;;;45.78;19.90;;;;;;;-0.12;85.00;99409.38;4965518;28;20598;-89
2022/12/12 02:53:21;;;;;;;44.38;19.80;;;;;;;-0.09;84.91;99409.22;4947205;28;20051;-89
2022/12/12 02:55:48;;;;;;;46.53;19.77;;;;;;;-0.07;84.71;99409.16;4943529;28;20102;-89
2022/12/12 02:58:17;;;;;;;48.95;20.25;;;;;;;-0.09;84.94;99409.22;4951431;28;20062;-88
2022/12/12 03:01:10;;;;;;;41.83;19.25;;;;;;;-0.16;85.15;99407.84;4950947;28;20071;-88
2022/12/12 03:10:02;;;;;;;45.58;19.30;;;;;;;-0.07;84.68;99399.56;4951821;28;19922;-88
2022/12/12 03:13:10;;;;;;;47.88;19.38;;;;;;;-0.12;85.06;99406.78;4973429;28;20070;-88
2022/12/12 03:16:08;;;;;;;49.88;20.27;;;;;;;-0.14;85.77;99402.56;4931119;28;20042;-88
2022/12/12 03:18:53;;;;;;;52.08;20.63;;;;;;;-0.12;85.75;99398.94;4932281;28;20051;-88
2022/12/12 03:21:38;;;;;;;49.97;20.73;;;;;;;-0.13;85.53;99404.22;4980139;28;20070;-89
2022/12/12 03:24:34;;;;;;;48.30;21.77;;;;;;;-0.06;85.56;99400.38;5001854;28;20049;-89
2022/12/12 03:27:16;;;;;;;50.22;21.58;;;;;;;0.03;84.95;99404.31;4919240;28;20046;-88
2022/12/12 03:29:51;;;;;;;51.50;21.13;;;;;;;-0.01;84.77;99398.38;4951167;28;20054;-89
2022/12/12 03:32:22;;;;;;;44.33;18.85;;;;;;;0.05;84.13;99400.69;4954227;28;20104;-89
2022/12/12 03:34:53;;;;;;;43.83;19.85;;;;;;;0.08;83.18;99404.91;4985052;28;20125;-89
2022/12/12 03:37:25;;;;;;;47.22;20.80;;;;;;;0.05;83.28;99398.09;4999628;28;20042;-89
2022/12/12 03:39:54;;;;;;;49.10;20.67;;;;;;;0.08;83.16;99404.91;4965273;28;20105;-87
2022/12/12 03:42:29;;;;;;;55.78;22.42;;;;;;;0.04;83.23;99396.38;4966169;28;20085;-89
2022/12/12 03:45:08;;;;;;;47.63;20.73;;;;;;;-0.01;83.60;99394.00;4985383;28;20053;-89
2022/12/12 03:47:44;;;;;;;44.67;20.83;;;;;;;0.07;82.93;99401.44;4935686;28;20046;-88
2022/12/12 03:50:17;;;;;;;42.13;18.08;;;;;;;0.03;82.85;99412.13;4984652;28;20065;-89
2022/12/12 03:53:00;;;;;;;43.70;18.17;;;;;;;-0.06;82.79;99403.84;4954578;28;20061;-89
2022/12/12 03:55:30;;;;;;;45.20;19.15;;;;;;;0.04;82.42;99405.97;4945614;28;20503;-89
2022/12/12 03:57:59;;;;;;;43.63;18.33;;;;;;;0.02;83.20;99410.44;4949648;28;20039;-89
2022/12/12 04:00:27;;;;;;;44.42;18.92;;;;;;;0.01;82.59;99401.75;4962140;28;20105;-89
2022/12/12 04:03:01;;;;;;;44.38;18.30;;;;;;;-0.02;82.34;99409.75;4950095;28;20050;-89
2022/12/12 04:05:36;;;;;;;44.85;19.00;;;;;;;0.04;82.50;99412.03;4997802;28;20050;-89
2022/12/12 04:08:08;;;;;;;45.28;19.60;;;;;;;0.04;82.38;99411.19;4944129;28;20101;-90
2022/12/12 04:13:42;;;;;;;47.13;20.33;;;;;;;0.03;82.40;99412.13;4947865;28;20046;-89
2022/12/12 04:16:14;;;;;;;43.75;18.17;;;;;;;0.05;82.69;99413.75;4961076;28;20162;-88
2022/12/12 04:19:00;;;;;;;42.65;19.40;;;;;;;0.05;82.50;99413.75;4949670;28;20046;-88
2022/12/12 04:24:50;;;;;;;48.03;19.65;;;;;;;0.00;83.58;99418.38;4951245;28;20047;-88
2022/12/12 04:27:33;;;;;;;49.30;19.13;;;;;;;0.01;83.73;99422.66;4964501;28;20047;-89
2022/12/12 04:30:08;;;;;;;43.72;18.30;;;;;;;0.02;83.78;99419.09;4934720;28;20039;-88
2022/12/12 04:32:37;;;;;;;44.85;18.83;;;;;;;0.06;83.69;99417.19;4948660;28;20502;-89
2022/12/12 04:35:08;;;;;;;55.22;21.58;;;;;;;0.08;83.77;99416.19;4983872;28;20132;-88
2022/12/12 04:37:47;;;;;;;49.40;19.65;;;;;;;-0.02;83.41;99422.81;4968975;28;20113;-88
2022/12/12 04:40:26;;;;;;;44.22;19.60;;;;;;;0.03;83.18;99431.25;4972282;28;20401;-89
2022/12/12 04:42:58;;;;;;;47.63;19.95;;;;;;;0.08;82.67;99434.47;4963488;28;20096;-89
2022/12/12 04:45:41;;;;;;;43.10;20.33;;;;;;;0.05;82.91;99432.03;4974814;28;20038;-89
2022/12/12 04:48:12;;;;;;;43.38;18.23;;;;;;;0.05;83.05;99441.59;4975906;28;20470;-89
2022/12/12 04:50:40;;;;;;;48.25;20.15;;;;;;;0.09;82.97;99435.31;4949674;28;20154;-90
2022/12/12 04:53:10;;;;;;;48.88;19.70;;;;;;;0.10;82.58;99435.22;4953690;28;20054;-90
2022/12/12 04:55:49;;;;;;;46.60;19.25;;;;;;;0.12;82.34;99438.59;4968628;28;20038;-88
2022/12/12 04:58:16;;;;;;;40.35;19.00;;;;;;;0.09;82.53;99440.53;4969484;28;20038;-88
2022/12/12 05:00:54;;;;;;;47.13;20.80;;;;;;;0.08;82.53;99442.28;4964568;28;20619;-88
2022/12/12 05:03:28;;;;;;;53.63;20.88;;;;;;;0.10;83.03;99442.19;4998982;28;20038;-88
2022/12/12 05:06:01;;;;;;;49.03;19.55;;;;;;;0.04;84.31;99435.53;4957024;28;20086;-88
2022/12/12 05:08:31;;;;;;;49.95;19.98;;;;;;;0.08;83.88;99441.47;4970109;28;20072;-88
2022/12/12 05:10:59;;;;;;;46.22;19.17;;;;;;;0.06;83.49;99443.28;4973335;28;20074;-88
2022/12/12 05:13:35;;;;;;;41.90;18.63;;;;;;;0.05;83.72;99439.84;4994768;28;20125;-90
2022/12/12 05:16:32;;;;;;;46.22;20.42;;;;;;;-0.01;85.17;99450.59;4962219;28;20553;-91
2022/12/12 05:18:59;;;;;;;50.28;21.40;;;;;;;0.07;84.15;99451.03;4898744;28;20051;-91
2022/12/12 05:21:25;;;;;;;50.33;19.90;;;;;;;0.10;83.90;99456.13;4965157;28;20066;-88
2022/12/12 05:23:52;;;;;;;49.00;19.30;;;;;;;0.10;84.14;99455.25;4982431;28;20046;-89
2022/12/12 05:26:25;;;;;;;47.47;19.95;;;;;;;0.07;84.33;99458.88;4964601;28;20054;-89
2022/12/12 05:28:52;;;;;;;44.30;18.13;;;;;;;0.11;83.93;99456.97;4958587;28;20039;-90
2022/12/12 05:31:19;;;;;;;43.47;17.63;;;;;;;0.10;83.59;99457.88;4959362;28;20042;-89
2022/12/12 05:33:46;;;;;;;47.38;18.83;;;;;;;0.14;83.09;99460.25;4943506;28;20687;-89
2022/12/12 05:36:13;;;;;;;42.70;18.70;;;;;;;0.11;83.16;99457.78;4968636;28;20046;-89
2022/12/12 05:38:40;;;;;;;48.80;20.90;;;;;;;0.11;83.60;99473.47;4938082;28;20054;-88
2022/12/12 05:41:07;;;;;;;44.83;18.92;;;;;;;0.09;84.01;99461.41;4961721;28;20038;-87
2022/12/12 05:43:34;;;;;;;49.22;20.42;;;;;;;0.10;83.75;99465.69;4979513;28;20043;-89
2022/12/12 05:46:01;;;;;;;48.53;20.38;;;;;;;0.15;83.67;99461.06;4984449;28;20133;-89
2022/12/12 05:48:28;;;;;;;48.63;21.52;;;;;;;0.09;83.80;99457.03;4978252;28;20085;-88
2022/12/12 05:50:55;;;;;;;49.13;19.98;;;;;;;0.08;83.49;99462.34;4984189;28;20387;-89
2022/12/12 05:53:22;;;;;;;49.72;20.38;;;;;;;0.15;83.19;99463.69;4933079;28;20046;-88
2022/12/12 05:55:50;;;;;;;45.75;20.08;;;;;;;0.15;83.37;99456.72;4988431;28;20057;-89
2022/12/12 05:58:18;;;;;;;49.25;19.38;;;;;;;0.17;83.35;99462.69;4933007;28;20144;-88
2022/12/12 06:00:49;;;;;;;43.00;19.52;;;;;;;0.15;82.63;99461.06;4966789;28;20516;-89
2022/12/12 06:03:16;;;;;;;49.50;20.83;;;;;;;0.14;82.99;99473.28;4964190;28;20042;-89
2022/12/12 06:05:43;;;;;;;44.85;18.40;;;;;;;0.13;82.94;99465.56;4997583;28;20175;-89
2022/12/12 06:08:10;;;;;;;44.95;19.20;;;;;;;0.12;82.65;99464.69;4983112;28;20835;-89
2022/12/12 06:10:36;;;;;;;50.03;20.17;;;;;;;0.13;82.95;99476.84;4964783;28;20045;-89
2022/12/12 06:13:03;;;;;;;46.25;18.23;;;;;;;0.16;82.96;99470.63;4982819;28;20120;-88
2022/12/12 06:15:30;;;;;;;40.30;18.17;;;;;;;0.06;82.80;99474.63;4996983;28;20499;-89
2022/12/12 06:17:57;;;;;;;44.03;18.13;;;;;;;0.13;82.89;99479.44;4968437;28;20134;-88
2022/12/12 06:20:24;;;;;;;48.95;20.17;;;;;;;0.12;83.00;99472.53;4937586;28;20449;-88
2022/12/12 06:22:50;;;;;;;46.67;20.42;;;;;;;0.16;82.74;99481.06;4996476;28;20616;-89
2022/12/12 06:25:19;;;;;;;41.97;18.63;;;;;;;0.13;82.88;99474.22;4980115;28;20080;-89
2022/12/12 06:27:46;;;;;;;47.83;20.05;;;;;;;0.15;82.81;99479.34;4956865;28;20047;-89
2022/12/12 06:30:13;;;;;;;39.97;17.55;;;;;;;0.13;82.89;99481.22;4921882;28;20047;-89
2022/12/12 06:32:40;;;;;;;44.25;19.13;;;;;;;0.10;82.68;99482.22;4986353;28;20050;-90
2022/12/12 06:35:07;;;;;;;46.10;20.75;;;;;;;0.12;82.90;99485.56;4989550;28;20154;-90
2022/12/12 06:37:34;;;;;;;45.95;18.98;;;;;;;0.13;82.43;99484.66;4951212;28;20054;-89
2022/12/12 06:40:01;;;;;;;44.80;19.15;;;;;;;0.05;82.53;99486.84;4968545;28;20046;-89
2022/12/12 06:42:28;;;;;;;47.03;19.60;;;;;;;0.06;82.75;99482.47;4948603;28;20098;-90
2022/12/12 06:44:54;;;;;;;50.38;20.23;;;;;;;0.06;82.62;99482.47;4962683;28;20055;-90
2022/12/12 06:47:21;;;;;;;48.33;19.70;;;;;;;0.07;82.43;99481.53;4935358;28;20931;-90
2022/12/12 06:49:48;;;;;;;41.88;18.23;;;;;;;0.05;82.45;99489.44;4975325;28;20077;-89
2022/12/12 06:52:14;;;;;;;48.88;21.73;;;;;;;0.08;82.30;99491.06;4964739;28;20494;-90
2022/12/12 06:54:41;;;;;;;53.88;21.98;;;;;;;0.07;82.33;99498.03;4972122;28;20061;-90
2022/12/12 06:57:08;;;;;;;45.95;20.15;;;;;;;0.04;82.47;99492.97;5000797;28;20125;-89
2022/12/12 06:59:34;;;;;;;50.78;20.00;;;;;;;0.05;82.25;99497.28;4986188;28;20054;-89
2022/12/12 07:02:01;;;;;;;45.15;18.85;;;;;;;0.08;82.27;99497.13;4971760;28;20085;-90
2022/12/12 07:04:28;;;;;;;46.42;18.50;;;;;;;0.12;82.13;99495.19;4982248;28;20058;-90
2022/12/12 07:06:54;;;;;;;41.53;17.65;;;;;;;0.13;82.06;99507.34;4942807;28;20082;-89
2022/12/12 07:09:21;;;;;;;39.95;17.17;;;;;;;0.09;81.77;99503.19;4940642;28;20421;-89
2022/12/12 07:11:48;;;;;;;41.97;17.00;;;;;;;0.08;81.89;99515.41;4986737;28;20085;-90
2022/12/12 07:14:14;;;;;;;43.83;18.10;;;;;;;0.11;81.70;99515.22;4935183;28;20046;-90
2022/12/12 07:16:41;;;;;;;41.20;16.90;;;;;;;0.08;81.55;99511.94;4949023;28;20720;-90
2022/12/12 07:19:08;;;;;;;42.67;18.20;;;;;;;0.08;81.44;99515.41;4948534;28;20105;-89
2022/12/12 07:21:35;;;;;;;42.17;17.50;;;;;;;0.11;81.88;99520.44;4952326;28;20402;-90
2022/12/12 07:24:01;;;;;;;43.10;18.08;;;;;;;0.07;81.33;99521.50;4984202;28;20065;-89
2022/12/12 07:26:28;;;;;;;45.75;18.90;;;;;;;0.05;81.28;99522.50;4966671;28;20047;-89
2022/12/12 07:28:55;;;;;;;34.92;16.63;;;;;;;0.06;81.33;99521.63;4988315;28;20463;-88
2022/12/12 07:31:25;;;;;;;44.53;17.35;;;;;;;0.04;81.47;99519.06;4957191;28;20058;-88
2022/12/12 07:33:53;;;;;;;40.83;17.35;;;;;;;0.05;81.56;99532.97;4984092;28;20191;-90
2022/12/12 07:36:20;;;;;;;39.50;18.73;;;;;;;0.07;81.20;99536.34;4985506;28;20509;-90
2022/12/12 07:38:47;;;;;;;42.42;18.40;;;;;;;0.06;81.06;99545.94;4986560;28;20062;-89
2022/12/12 07:41:16;;;;;;;41.40;16.92;;;;;;;0.02;80.94;99544.41;4986837;28;20061;-89
2022/12/12 07:43:47;;;;;;;44.75;18.40;;;;;;;0.02;81.27;99540.94;4965856;28;20121;-89
2022/12/12 07:46:19;;;;;;;42.72;18.02;;;;;;;0.03;81.08;99550.50;4999610;28;20125;-90
2022/12/12 07:48:46;;;;;;;47.28;18.67;;;;;;;-0.01;81.46;99542.78;4979195;28;20054;-90
2022/12/12 07:51:13;;;;;;;39.88;16.00;;;;;;;0.03;81.34;99542.66;4968290;28;20042;-90
2022/12/12 07:53:40;;;;;;;38.97;17.10;;;;;;;0.02;80.94;99548.78;4967854;28;20046;-90
2022/12/12 07:56:08;;;;;;;46.17;16.58;;;;;;;0.07;80.74;99545.00;4955942;28;20121;-89
2022/12/12 07:58:36;;;;;;;42.67;18.30;;;;;;;0.05;81.00;99546.88;4964546;28;20082;-88
2022/12/12 08:01:17;;;;;;;48.72;18.98;;;;;;;0.07;80.75;99549.38;4973899;28;20049;-90
2022/12/12 08:03:45;;;;;;;47.45;20.27;;;;;;;0.08;81.25;99557.16;4969849;28;20065;-90
2022/12/12 08:06:13;;;;;;;45.28;19.55;;;;;;;0.06;81.16;99564.22;4931174;28;20042;-90
2022/12/12 08:08:39;;;;;;;45.80;19.55;;;;;;;0.09;81.46;99556.22;4970879;28;20614;-90
2022/12/12 08:11:08;;;;;;;38.30;17.90;;;;;;;0.16;81.16;99555.00;4988422;28;20050;-90
2022/12/12 08:13:36;;;;;;;42.72;17.42;;;;;;;0.15;81.33;99565.50;4934591;28;20117;-90
2022/12/12 08:16:04;;;;;;;42.60;18.83;;;;;;;0.14;80.97;99556.00;4980412;28;20039;-90
2022/12/12 08:18:31;;;;;;;37.60;17.85;;;;;;;0.18;81.07;99558.38;4955156;28;20498;-90
2022/12/12 08:20:59;;;;;;;43.83;18.52;;;;;;;0.25;81.16;99564.13;4953271;28;20053;-89
2022/12/12 08:23:25;;;;;;;42.20;18.58;;;;;;;0.24;80.76;99565.06;4970911;28;20044;-90
2022/12/12 08:25:53;;;;;;;45.10;19.73;;;;;;;0.26;81.16;99568.44;4967296;28;20576;-90
2022/12/12 08:28:20;;;;;;;42.15;16.98;;;;;;;0.24;81.25;99566.84;4986368;28;20406;-90
2022/12/12 08:30:50;;;;;;;42.65;19.45;;;;;;;0.21;81.09;99557.38;4971072;28;20109;-90
2022/12/12 08:33:17;;;;;;;44.75;20.23;;;;;;;0.29;80.96;99564.84;4952339;28;20046;-90
2022/12/12 08:35:44;;;;;;;43.60;18.35;;;;;;;0.34;80.96;99570.69;4991808;28;20047;-90
2022/12/12 08:38:11;;;;;;;42.95;18.23;;;;;;;0.38;81.05;99574.81;5000105;28;20050;-90
2022/12/12 08:40:38;;;;;;;45.47;18.02;;;;;;;0.36;81.02;99574.91;4989384;28;20552;-91
2022/12/12 08:43:05;;;;;;;39.75;18.02;;;;;;;0.39;80.71;99577.34;4940659;28;20068;-91
2022/12/12 08:45:31;;;;;;;41.97;17.02;;;;;;;0.39;80.57;99577.34;4950490;28;20943;-90
2022/12/12 08:47:58;;;;;;;39.78;17.83;;;;;;;0.34;80.56;99570.69;4949536;28;20070;-89
2022/12/12 08:50:25;;;;;;;40.97;18.70;;;;;;;0.40;80.55;99578.19;4955630;28;20043;-91
2022/12/12 08:52:52;;;;;;;42.92;17.70;;;;;;;0.35;80.83;99574.97;4935216;28;20418;-90
2022/12/12 08:55:19;;;;;;;37.45;17.05;;;;;;;0.38;80.55;99577.41;4965940;28;20059;-90
2022/12/12 08:57:45;;;;;;;38.25;16.98;;;;;;;0.42;80.69;99576.34;4972662;28;20108;-90
2022/12/12 09:00:13;;;;;;;42.80;17.58;;;;;;;0.42;80.82;99589.41;4949929;28;20055;-90
2022/12/12 09:02:39;;;;;;;42.30;17.17;;;;;;;0.37;80.52;99591.41;4953255;28;20085;-90
2022/12/12 09:05:07;;;;;;;40.75;18.05;;;;;;;0.41;80.75;99596.41;4937595;28;20403;-91
2022/12/12 09:07:35;;;;;;;38.72;18.33;;;;;;;0.35;80.87;99596.69;4931119;28;20055;-90
2022/12/12 09:10:01;;;;;;;40.55;17.13;;;;;;;0.35;80.67;99596.69;4970660;28;20049;-91
2022/12/12 09:12:28;;;;;;;39.35;17.45;;;;;;;0.30;80.10;99603.91;4980811;28;20119;-90
2022/12/12 09:14:55;;;;;;;37.35;15.27;;;;;;;0.33;80.24;99613.38;4952522;28;20454;-89
2022/12/12 09:17:21;;;;;;;38.60;16.95;;;;;;;0.32;80.12;99611.69;4996582;28;20086;-90
2022/12/12 09:19:48;;;;;;;34.67;15.23;;;;;;;0.30;79.87;99609.13;4985396;28;20046;-90
2022/12/12 09:22:16;;;;;;;41.28;16.73;;;;;;;0.34;80.62;99617.69;4958168;28;20084;-90
2022/12/12 09:24:43;;;;;;;35.90;16.70;;;;;;;0.29;81.03;99607.47;4948802;28;20076;-91
2022/12/12 09:27:10;;;;;;;31.05;15.05;;;;;;;0.25;80.16;99608.53;4943192;28;20042;-90
2022/12/12 09:29:36;;;;;;;40.25;17.00;;;;;;;0.26;80.21;99615.44;4950838;28;20125;-90
2022/12/12 09:32:05;;;;;;;41.47;16.65;;;;;;;0.25;80.31;99618.13;4968226;28;20047;-90
2022/12/12 09:34:36;;;;;;;35.33;15.75;;;;;;;0.17;79.28;99614.13;4942410;28;20046;-90
2022/12/12 09:37:03;;;;;;;35.60;15.75;;;;;;;0.21;79.38;99617.44;4966511;28;20089;-90
2022/12/12 09:39:30;;;;;;;31.92;14.27;;;;;;;0.22;79.24;99617.34;4916361;28;20043;-90
2022/12/12 09:41:57;;;;;;;36.38;14.88;;;;;;;0.16;79.25;99622.06;4934478;28;20435;-89
2022/12/12 09:44:24;;;;;;;40.05;17.13;;;;;;;0.14;79.64;99622.13;4982104;28;20135;-90
2022/12/12 09:46:59;;;;;;;36.70;15.88;;;;;;;0.14;79.22;99622.13;4941057;28;20053;-90
2022/12/12 09:49:47;;;;;;;31.13;14.35;;;;;;;0.12;78.56;99617.88;4916352;28;20057;-91
2022/12/12 09:52:32;;;;;;;33.95;15.82;;;;;;;0.12;79.02;99616.13;4937400;28;20050;-90
2022/12/12 09:55:03;;;;;;;32.70;13.75;;;;;;;0.16;78.52;99622.88;5014870;28;20050;-91
2022/12/12 09:57:43;;;;;;;39.00;16.27;;;;;;;0.08;78.79;99616.38;4950910;28;20056;-89
2022/12/12 10:00:11;;;;;;;37.45;15.18;;;;;;;0.13;79.05;99624.81;4953366;28;20483;-91
2022/12/12 10:03:12;;;;;;;36.55;15.80;;;;;;;0.06;78.20;99624.25;4953032;28;20137;-91
2022/12/12 10:05:56;;;;;;;36.53;15.65;;;;;;;0.13;77.96;99617.00;4969883;28;20058;-91
2022/12/12 10:09:02;;;;;;;39.30;14.80;;;;;;;0.14;78.59;99616.06;4936947;28;20051;-90
2022/12/12 10:11:50;;;;;;;36.55;14.77;;;;;;;0.20;78.69;99616.59;4982476;28;20042;-90
2022/12/12 10:14:26;;;;;;;35.35;15.93;;;;;;;0.15;78.22;99613.38;4946931;28;20058;-90
2022/12/12 10:16:54;;;;;;;39.00;15.82;;;;;;;0.21;78.25;99613.06;4963687;28;20206;-90
2022/12/12 10:19:27;;;;;;;41.95;17.08;;;;;;;0.19;77.61;99614.06;4926754;28;20642;-90
2022/12/12 10:21:56;;;;;;;37.80;16.05;;;;;;;0.17;77.75;99606.28;4973166;28;20105;-91
2022/12/12 10:24:39;;;;;;;35.97;15.60;;;;;;;0.11;77.79;99595.31;4930924;28;20053;-91
2022/12/12 10:27:11;;;;;;;33.75;13.57;;;;;;;0.17;77.79;99598.47;4923032;28;20587;-91
2022/12/12 10:29:41;;;;;;;37.95;15.65;;;;;;;0.24;78.08;99595.56;4986390;28;20486;-91
2022/12/12 10:32:26;;;;;;;31.20;13.55;;;;;;;0.31;78.26;99599.56;4982861;28;20042;-91
2022/12/12 10:35:14;;;;;;;35.25;15.45;;;;;;;0.29;77.60;99604.00;4965053;28;20130;-90
2022/12/12 10:38:17;;;;;;;38.67;15.43;;;;;;;0.33;77.30;99606.41;4919583;28;20041;-91
2022/12/12 10:41:05;;;;;;;40.58;16.33;;;;;;;0.31;77.86;99605.63;4981294;28;20046;-91
2022/12/12 10:43:57;;;;;;;39.40;15.98;;;;;;;0.32;77.51;99612.53;4917481;28;20042;-91
2022/12/12 10:46:42;;;;;;;43.60;16.83;;;;;;;0.35;77.67;99611.53;4924105;28;20130;-91
2022/12/12 10:49:17;;;;;;;37.30;16.00;;;;;;;0.32;77.73;99607.31;4931227;28;20046;-92
2022/12/12 10:51:45;;;;;;;36.88;15.23;;;;;;;0.36;78.14;99605.41;4962832;28;20439;-91
2022/12/12 10:54:17;;;;;;;37.35;14.52;;;;;;;0.35;77.73;99611.53;4945737;28;20046;-91
2022/12/12 10:57:05;;;;;;;32.45;15.07;;;;;;;0.31;77.24;99610.84;4981940;28;20052;-91
2022/12/12 10:59:44;;;;;;;36.58;15.82;;;;;;;0.31;77.48;99600.41;4940432;28;20132;-91
2022/12/12 11:02:39;;;;;;;35.90;15.23;;;;;;;0.31;77.63;99604.78;5013107;28;20042;-91
2022/12/12 11:05:19;;;;;;;39.05;15.85;;;;;;;0.38;78.00;99606.16;4983715;28;20057;-91
2022/12/12 11:07:47;;;;;;;41.63;15.90;;;;;;;0.44;78.07;99598.00;4938872;28;20519;-92
2022/12/12 11:10:26;;;;;;;35.00;14.90;;;;;;;0.40;77.60;99599.91;4987649;28;20436;-91
2022/12/12 11:13:02;;;;;;;34.58;14.63;;;;;;;0.53;77.98;99599.31;4919082;28;20043;-92
2022/12/12 11:15:37;;;;;;;37.47;15.40;;;;;;;0.53;77.36;99594.91;4938716;28;20066;-91
2022/12/12 11:18:05;;;;;;;30.15;13.52;;;;;;;0.61;77.65;99592.78;4966777;28;20502;-91
2022/12/12 11:20:32;;;;;;;33.88;15.52;;;;;;;0.59;77.78;99592.00;4971300;28;20058;-91
2022/12/12 11:22:58;;;;;;;36.33;14.88;;;;;;;0.63;77.71;99590.91;4984676;28;20042;-92
2022/12/12 11:25:28;;;;;;;28.23;13.35;;;;;;;0.71;77.73;99597.50;4936205;28;20402;-91
2022/12/12 11:27:58;;;;;;;34.08;13.77;;;;;;;0.76;77.41;99600.72;4940593;28;20502;-91
2022/12/12 11:30:35;;;;;;;31.00;13.30;;;;;;;0.74;76.53;99599.97;4982194;28;20407;-92
2022/12/12 11:33:04;;;;;;;33.53;13.65;;;;;;;0.79;77.31;99595.34;4907064;28;20091;-91
2022/12/12 11:35:35;;;;;;;37.13;14.75;;;;;;;0.87;77.40;99593.19;4902125;28;20073;-91
2022/12/12 11:38:42;;;;;;;35.47;14.82;;;;;;;0.83;76.20;99594.28;4918025;28;20050;-91
2022/12/12 11:41:10;;;;;;;36.60;15.63;;;;;;;0.97;77.33;99599.63;4921815;28;20042;-92
2022/12/12 11:43:48;;;;;;;36.78;15.65;;;;;;;0.86;77.22;99588.88;4964507;28;20070;-91
2022/12/12 11:46:27;;;;;;;34.90;15.30;;;;;;;0.81;76.78;99577.81;4936023;28;20102;-92
2022/12/12 11:48:58;;;;;;;36.78;15.70;;;;;;;0.85;77.39;99584.59;4911949;28;20083;-91
2022/12/12 11:51:37;;;;;;;37.65;16.05;;;;;;;0.78;76.95;99589.28;4916782;28;22492;-91
2022/12/12 11:54:33;;;;;;;41.42;16.88;;;;;;;0.68;76.53;99588.06;4902075;28;20066;-92
2022/12/12 11:57:05;;;;;;;34.50;14.52;;;;;;;0.69;76.87;99589.78;4869374;28;20166;-92
2022/12/12 11:59:44;;;;;;;37.65;16.10;;;;;;;0.63;76.43;99592.69;4945689;28;20078;-91